Terminal Aerodrome Forecast
Issued by NWS

Home | Current Version | Previous Version | Text Only | Print | Product List | Glossary On
Versions: 1 2 3 4 5 6 7 8 9 10 11 12 13
929
FTUS46 KSEW 232320
TAFBFI
TAF
KBFI 232320Z 2400/2424 32008KT P6SM SCT025 SCT250
     FM240400 VRB03KT P6SM SCT020 SCT250
     FM241000 11003KT P6SM BKN018
     FM241900 17005KT P6SM SCT030=

USA.gov is the U.S. government's official web portal to all federal, state and local government web resources and services.